Time;durP1;ratioP1;P1;durP2;ratioP2;P2;SDS_P1;SDS_P2;PMS_P1;PMS_P2;Temp;Humidity;BMP_temperature;BMP_pressure;BME280_temperature;BME280_humidity;BME280_pressure;Samples;Min_cycle;Max_cycle;Signal;HPM_P1;HPM_P2
2022/05/24 00:00:00;;;;;;;5.40;2.80;;;18.00;73.50;;;14.50;88.39;94663.06;5037853;28;20496;-49
2022/05/24 00:02:27;;;;;;;4.45;2.75;;;18.00;73.40;;;14.50;88.22;94663.84;5054014;28;20108;-50
2022/05/24 00:04:59;;;;;;;5.03;3.00;;;17.90;73.40;;;14.49;87.95;94659.59;5053728;28;20029;-49
2022/05/24 00:07:43;;;;;;;6.65;3.35;;;18.00;73.50;;;14.49;88.19;94659.59;5054974;28;20068;-50
2022/05/24 00:10:13;;;;;;;8.13;3.58;;;18.00;73.50;;;14.48;88.50;94657.25;5054691;28;20063;-49
2022/05/24 00:12:39;;;;;;;5.68;2.58;;;17.90;73.30;;;14.39;87.33;94669.81;5054614;28;20044;-53
2022/05/24 00:15:30;;;;;;;7.47;3.10;;;17.90;73.40;;;14.42;88.11;94672.66;5063923;28;20021;-48
2022/05/24 00:18:14;;;;;;;5.40;3.03;;;17.90;73.50;;;14.41;88.01;94664.94;5054786;28;20051;-54
2022/05/24 00:21:06;;;;;;;3.67;2.63;;;17.90;73.70;;;14.42;88.16;94658.50;5053193;28;20032;-49
2022/05/24 00:23:33;;;;;;;7.00;3.10;;;17.90;73.60;;;14.42;88.13;94651.25;5034317;28;20052;-49
2022/05/24 00:26:30;;;;;;;5.05;2.53;;;17.90;73.50;;;14.38;87.96;94646.78;5054881;28;20028;-54
2022/05/24 00:29:01;;;;;;;8.77;3.20;;;17.90;73.70;;;14.37;87.62;94650.59;5037209;28;20045;-52
2022/05/24 00:31:47;;;;;;;6.30;2.58;;;17.90;73.60;;;14.36;87.26;94652.47;5056434;28;20175;-51
2022/05/24 00:34:13;;;;;;;4.88;3.03;;;17.90;73.60;;;14.40;87.25;94658.78;5049875;28;20111;-53
2022/05/24 00:36:50;;;;;;;7.95;2.80;;;17.80;73.40;;;14.40;87.23;94648.06;5054286;28;20025;-53
2022/05/24 00:39:16;;;;;;;7.38;2.55;;;17.80;73.50;;;14.40;87.04;94642.72;5058473;28;20491;-50
2022/05/24 00:41:52;;;;;;;7.40;3.03;;;17.80;73.30;;;14.38;87.23;94644.91;5059596;28;20037;-51
2022/05/24 00:44:47;;;;;;;4.55;2.75;;;17.80;73.30;;;14.37;87.31;94647.91;5051763;28;20420;-50
2022/05/24 00:47:41;;;;;;;5.70;2.83;;;17.90;73.40;;;14.30;87.95;94641.09;5028813;28;20039;-52
2022/05/24 00:50:23;;;;;;;6.03;3.08;;;17.80;73.20;;;14.26;87.72;94647.41;5033636;28;20036;-49
2022/05/24 00:53:08;;;;;;;8.30;3.03;;;17.80;73.10;;;14.23;87.89;94642.66;5052767;28;20120;-50
2022/05/24 00:56:21;;;;;;;4.63;3.13;;;17.80;73.10;;;14.18;88.35;94619.47;5035521;28;20025;-49
2022/05/24 00:59:08;;;;;;;9.73;3.28;;;17.80;73.10;;;14.17;88.12;94630.53;5052030;28;20047;-49
2022/05/24 01:01:48;;;;;;;11.48;4.10;;;17.80;73.00;;;14.10;88.48;94631.75;5068225;28;20036;-51
2022/05/24 01:04:17;;;;;;;12.40;3.78;;;17.70;73.00;;;14.08;88.11;94628.59;5051196;28;20368;-50
2022/05/24 01:06:45;;;;;;;7.38;4.10;;;17.70;73.00;;;14.02;88.44;94640.53;5057245;28;20146;-50
2022/05/24 01:09:38;;;;;;;8.75;3.92;;;17.70;73.00;;;13.98;88.64;94638.78;5057649;28;20574;-51
2022/05/24 01:12:14;;;;;;;9.50;3.90;;;17.70;73.20;;;13.97;88.55;94648.69;5051444;28;20116;-50
2022/05/24 01:14:40;;;;;;;8.43;4.18;;;17.60;73.20;;;13.96;88.85;94646.34;5026018;28;20032;-53
2022/05/24 01:17:10;;;;;;;10.65;4.10;;;17.60;73.10;;;13.94;89.00;94630.56;5071428;28;20139;-52
2022/05/24 01:19:49;;;;;;;7.00;3.80;;;17.60;73.30;;;13.91;88.86;94628.50;5072713;28;20383;-50
2022/05/24 01:22:58;;;;;;;7.05;3.90;;;17.60;73.50;;;13.87;89.34;94622.19;5070999;28;20575;-53
2022/05/24 01:25:46;;;;;;;8.82;3.92;;;17.60;73.50;;;13.81;88.53;94618.06;5068970;28;20047;-50
2022/05/24 01:28:28;;;;;;;6.30;3.03;;;17.50;73.40;;;13.76;88.36;94626.25;5051650;28;20079;-50
2022/05/24 01:30:55;;;;;;;4.63;2.72;;;17.50;73.40;;;13.78;88.11;94626.72;5042098;28;20035;-49
2022/05/24 01:36:10;;;;;;;4.25;2.50;;;17.50;73.70;;;13.84;87.11;94620.91;5052854;28;20036;-52
2022/05/24 01:38:55;;;;;;;5.07;2.13;;;17.50;73.70;;;13.87;87.14;94628.34;5051207;28;20028;-50
2022/05/24 01:41:31;;;;;;;5.03;2.25;;;17.50;73.60;;;13.90;86.96;94629.59;5059463;28;20059;-50
2022/05/24 01:43:57;;;;;;;4.93;1.98;;;17.50;73.60;;;13.93;86.53;94623.63;5054128;28;20171;-52
2022/05/24 01:46:50;;;;;;;4.20;2.08;;;17.50;73.50;;;13.96;86.47;94624.91;5052180;28;20028;-52
2022/05/24 01:49:31;;;;;;;4.45;2.50;;;17.50;73.50;;;13.99;86.51;94624.31;5058754;28;20099;-49
2022/05/24 01:52:38;;;;;;;7.63;2.35;;;17.50;73.40;;;14.01;86.69;94627.47;5071857;28;20043;-54
2022/05/24 01:55:23;;;;;;;4.45;2.60;;;17.50;73.30;;;14.02;86.46;94624.47;5072035;28;20499;-52
2022/05/24 01:58:04;;;;;;;6.50;2.58;;;17.50;73.20;;;14.04;86.56;94616.13;5070926;28;20029;-51
2022/05/24 02:00:33;;;;;;;7.00;2.50;;;17.60;73.20;;;14.05;86.51;94623.06;5070751;28;20166;-50
2022/05/24 02:02:59;;;;;;;6.97;2.30;;;17.60;73.10;;;14.04;86.72;94622.28;5053450;28;20068;-53
2022/05/24 02:05:38;;;;;;;6.15;2.80;;;17.60;73.00;;;14.04;86.70;94616.13;5070658;28;20553;-52
2022/05/24 02:08:09;;;;;;;4.75;2.40;;;17.60;73.10;;;14.01;86.82;94617.53;5058345;28;20116;-51
2022/05/24 02:11:01;;;;;;;2.83;2.30;;;17.60;72.90;;;14.00;87.17;94615.94;5051973;28;20115;-52
2022/05/24 02:13:46;;;;;;;4.57;2.47;;;17.60;73.00;;;13.94;86.91;94611.81;5005809;28;20048;-52
2022/05/24 02:16:22;;;;;;;5.00;2.30;;;17.60;73.10;;;14.01;87.17;94622.13;5051373;28;20029;-49
2022/05/24 02:18:54;;;;;;;5.85;2.42;;;17.60;73.10;;;14.02;87.02;94621.78;5051892;28;20029;-50
2022/05/24 02:21:21;;;;;;;8.52;2.45;;;17.60;73.10;;;14.05;87.57;94623.06;5033829;28;20472;-50
2022/05/24 02:23:50;;;;;;;5.50;2.65;;;17.60;73.10;;;14.00;86.94;94620.50;5049958;28;20044;-53
2022/05/24 02:26:21;;;;;;;6.28;2.55;;;17.60;73.20;;;14.04;87.14;94627.63;5050454;28;20557;-51
2022/05/24 02:28:54;;;;;;;8.82;2.75;;;17.60;73.20;;;14.05;87.26;94623.84;5050458;28;20032;-53
2022/05/24 02:31:24;;;;;;;4.15;2.25;;;17.60;73.40;;;14.03;87.03;94620.69;5040604;28;20024;-50
2022/05/24 02:33:53;;;;;;;5.85;2.70;;;17.60;73.30;;;14.03;86.55;94618.00;5070861;28;20025;-48
2022/05/24 02:36:19;;;;;;;5.82;2.60;;;17.60;73.30;;;14.02;86.25;94612.97;5063091;28;20487;-51
2022/05/24 02:38:47;;;;;;;6.40;2.40;;;17.60;73.20;;;14.05;86.59;94612.34;5050342;28;20068;-49
2022/05/24 02:44:17;;;;;;;4.32;2.72;;;17.60;73.20;;;13.98;85.73;94604.00;5078806;22;20071;-54
2022/05/24 02:46:46;;;;;;;6.47;2.58;;;17.60;73.20;;;14.00;85.91;94620.50;5062610;28;20066;-55
2022/05/24 02:49:13;;;;;;;5.00;2.75;;;17.50;73.10;;;13.99;86.43;94629.66;5049839;28;20383;-54
2022/05/24 02:51:44;;;;;;;7.13;2.60;;;17.60;73.10;;;13.99;86.40;94633.13;5074347;28;20032;-56
2022/05/24 02:54:10;;;;;;;6.22;2.65;;;17.50;73.10;;;13.91;85.38;94620.47;5071618;28;20111;-57
2022/05/24 02:56:36;;;;;;;6.00;2.40;;;17.50;72.90;;;13.88;85.73;94629.13;5037929;28;20056;-56
2022/05/24 02:59:05;;;;;;;4.18;2.60;;;17.50;72.90;;;13.84;85.99;94633.50;5037208;28;20028;-56
2022/05/24 03:01:31;;;;;;;7.72;2.45;;;17.40;72.90;;;13.76;85.81;94639.63;5060138;28;20020;-57
2022/05/24 03:03:57;;;;;;;6.53;2.85;;;17.30;72.90;;;13.80;86.68;94629.88;5074040;28;20198;-57
2022/05/24 03:06:24;;;;;;;7.25;2.70;;;17.30;73.10;;;13.70;86.66;94622.13;5057465;28;20028;-57
2022/05/24 03:14:36;;;;;;;4.78;2.70;;;17.20;73.40;;;13.71;86.87;94619.13;5092277;28;20584;-57
2022/05/24 03:17:11;;;;;;;4.95;2.85;;;17.10;73.40;;;13.68;87.02;94616.28;5073997;28;20024;-57
2022/05/24 03:19:36;;;;;;;4.85;2.80;;;17.10;73.50;;;13.68;87.26;94619.75;5093724;28;20020;-57
2022/05/24 03:22:07;;;;;;;5.28;3.30;;;17.10;73.50;;;13.63;87.77;94626.03;5105039;28;20039;-57
2022/05/24 03:24:44;;;;;;;7.60;2.92;;;17.10;73.50;;;13.59;87.63;94637.63;5083372;28;20051;-56
2022/05/24 03:27:16;;;;;;;5.07;2.58;;;17.10;73.70;;;13.59;87.64;94637.63;5096067;28;20387;-57
2022/05/24 03:29:46;;;;;;;9.45;3.05;;;17.10;73.70;;;13.56;87.60;94641.72;5077870;28;20059;-57
2022/05/24 03:32:14;;;;;;;9.82;3.08;;;17.10;73.70;;;13.55;87.69;94634.78;5095651;28;20038;-55
2022/05/24 03:34:46;;;;;;;9.90;2.95;;;17.10;73.70;;;13.56;87.56;94633.69;5078017;28;20082;-56
2022/05/24 03:37:12;;;;;;;9.63;3.10;;;17.10;73.80;;;13.58;87.68;94636.84;5077567;28;20027;-56
2022/05/24 03:39:41;;;;;;;5.85;3.10;;;17.00;73.60;;;13.59;87.60;94643.78;5060902;28;20078;-56
2022/05/24 03:42:07;;;;;;;7.50;3.08;;;17.10;73.80;;;13.57;88.06;94651.34;5095538;28;20028;-56
2022/05/24 03:44:34;;;;;;;9.15;3.40;;;17.00;73.70;;;13.55;88.19;94653.50;5073162;28;20579;-55
2022/05/24 03:47:06;;;;;;;7.45;3.22;;;17.00;73.70;;;13.52;88.29;94656.78;5095277;28;20032;-57
2022/05/24 03:49:38;;;;;;;7.28;3.33;;;17.00;73.90;;;13.54;88.41;94670.66;5060771;28;20059;-56
2022/05/24 03:52:13;;;;;;;7.45;3.47;;;17.00;73.80;;;13.55;88.41;94677.59;5077056;28;20036;-57
2022/05/24 03:54:39;;;;;;;6.03;3.85;;;17.00;73.80;;;13.52;88.74;94674.75;5077192;28;20482;-54
2022/05/24 03:59:52;;;;;;;7.55;3.75;;;17.10;74.10;;;13.51;89.28;94671.28;5095306;28;20174;-57
2022/05/24 04:02:18;;;;;;;8.38;4.18;;;17.00;74.00;;;13.50;89.11;94664.31;5095200;28;20032;-58
2022/05/24 04:04:44;;;;;;;8.40;4.47;;;17.00;74.10;;;13.50;89.55;94660.88;5095038;28;20035;-56
2022/05/24 04:07:10;;;;;;;9.27;4.28;;;17.00;74.20;;;13.44;89.60;94665.53;5095153;28;20038;-57
2022/05/24 04:09:36;;;;;;;9.93;4.78;;;17.00;74.30;;;13.44;90.01;94665.53;5094962;28;20032;-57
2022/05/24 04:12:06;;;;;;;11.63;5.45;;;17.00;74.40;;;13.47;90.19;94674.84;5076677;28;20149;-55
2022/05/24 04:14:44;;;;;;;8.48;3.85;;;17.00;74.60;;;13.39;89.50;94679.06;5076741;28;20219;-57
2022/05/24 04:17:10;;;;;;;10.18;3.80;;;17.00;74.70;;;13.36;89.38;94685.00;5076703;28;20044;-57
2022/05/24 04:19:41;;;;;;;7.78;4.03;;;16.90;74.50;;;13.35;89.85;94676.22;5076762;28;20059;-57
2022/05/24 04:22:07;;;;;;;5.22;4.45;;;16.90;74.70;;;13.39;89.87;94666.47;5076757;28;20035;-55
2022/05/24 04:24:33;;;;;;;7.80;4.13;;;16.90;74.70;;;13.42;89.87;94659.72;5076464;28;20032;-56
2022/05/24 04:26:59;;;;;;;7.22;4.20;;;16.90;74.70;;;13.41;89.89;94668.81;5076723;28;20032;-57
2022/05/24 04:29:25;;;;;;;10.32;5.00;;;16.90;74.70;;;13.36;89.86;94679.66;5060060;28;20363;-56
2022/05/24 04:31:51;;;;;;;7.20;4.78;;;16.90;74.70;;;13.36;90.12;94682.34;5075100;28;20028;-57
2022/05/24 04:34:16;;;;;;;11.15;5.05;;;16.90;74.80;;;13.35;90.21;94686.91;5076409;28;20028;-57
2022/05/24 04:36:45;;;;;;;7.97;6.03;;;16.90;74.90;;;13.37;90.20;94689.25;5076651;28;20047;-56
2022/05/24 04:39:17;;;;;;;12.25;5.63;;;16.90;74.90;;;13.35;90.56;94691.44;5059865;28;20412;-57
2022/05/24 04:44:27;;;;;;;11.57;5.75;;;16.90;74.90;;;13.39;90.20;94681.72;5097317;28;20058;-57
2022/05/24 04:47:08;;;;;;;9.35;5.38;;;16.90;74.80;;;13.38;90.24;94677.47;5087057;28;20397;-57
2022/05/24 04:49:39;;;;;;;9.93;5.45;;;17.00;74.90;;;13.35;90.28;94670.84;5094409;28;20084;-57
2022/05/24 04:52:07;;;;;;;10.05;5.72;;;17.00;74.70;;;13.38;90.53;94691.66;5076758;28;20068;-57
2022/05/24 04:54:39;;;;;;;11.02;5.90;;;17.00;74.70;;;13.35;90.36;94686.91;5076146;28;20035;-57
2022/05/24 04:57:09;;;;;;;16.15;5.85;;;17.00;74.80;;;13.40;90.18;94694.78;5076356;28;20500;-57
2022/05/24 04:59:38;;;;;;;11.32;5.78;;;17.10;74.80;;;13.38;90.63;94704.22;5076250;28;20020;-56
2022/05/24 05:02:08;;;;;;;11.75;5.82;;;17.10;74.70;;;13.42;91.05;94726.59;5075965;28;20032;-57
2022/05/24 05:04:36;;;;;;;8.82;4.63;;;17.10;74.90;;;13.35;91.05;94726.22;5075833;28;20027;-54
2022/05/24 05:07:04;;;;;;;10.48;4.90;;;17.10;75.00;;;13.35;90.93;94729.69;5075898;28;20153;-53
2022/05/24 05:09:34;;;;;;;12.07;5.70;;;17.10;75.00;;;13.42;91.00;94735.41;5090717;28;20550;-56
2022/05/24 05:12:05;;;;;;;7.30;4.78;;;17.20;75.00;;;13.44;90.90;94745.78;5088710;28;20474;-56
2022/05/24 05:14:31;;;;;;;9.95;4.43;;;17.20;75.10;;;13.35;90.88;94728.88;5086390;28;20020;-56
2022/05/24 05:17:02;;;;;;;8.07;4.22;;;17.20;75.20;;;13.46;90.98;94726.78;5062573;28;20035;-58
2022/05/24 05:19:28;;;;;;;8.38;4.50;;;17.20;75.20;;;13.46;90.65;94711.53;5069165;28;20064;-58
2022/05/24 05:21:55;;;;;;;7.30;4.00;;;17.20;75.10;;;13.48;90.49;94725.38;5072783;28;20028;-56
2022/05/24 05:24:21;;;;;;;11.57;4.75;;;17.20;75.00;;;13.46;90.38;94730.25;5086647;28;20031;-57
2022/05/24 05:26:47;;;;;;;10.27;4.50;;;17.20;75.00;;;13.47;90.31;94731.81;5087147;28;20029;-58
2022/05/24 05:29:13;;;;;;;14.35;4.30;;;17.20;74.90;;;13.45;90.24;94743.94;5058166;28;20036;-58
2022/05/24 05:31:41;;;;;;;7.85;4.25;;;17.20;74.90;;;13.46;89.92;94740.16;5063708;28;20024;-58
2022/05/24 05:34:07;;;;;;;9.32;4.63;;;17.20;74.80;;;13.46;89.71;94738.28;5073787;28;20110;-58
2022/05/24 05:36:35;;;;;;;7.70;3.95;;;17.20;74.70;;;13.52;89.91;94739.72;5089669;28;20163;-57
2022/05/24 05:39:06;;;;;;;9.57;3.85;;;17.40;74.70;;;13.59;89.88;94729.38;5073204;28;20024;-58
2022/05/24 05:41:35;;;;;;;9.80;3.88;;;17.50;74.70;;;13.64;89.50;94745.34;5092406;28;20020;-58
2022/05/24 05:44:01;;;;;;;8.75;3.95;;;17.60;74.50;;;13.60;89.21;94736.34;5083869;28;20387;-58
2022/05/24 05:46:27;;;;;;;7.20;3.35;;;17.60;74.40;;;13.78;89.07;94757.88;5052565;28;20399;-58
2022/05/24 05:48:53;;;;;;;6.50;3.03;;;17.70;74.20;;;13.82;88.82;94759.63;5037294;28;20033;-58
2022/05/24 05:51:20;;;;;;;9.30;3.13;;;17.80;73.90;;;13.88;88.88;94760.28;5071861;28;20051;-58
2022/05/24 05:54:03;;;;;;;4.57;3.03;;;17.80;73.90;;;13.87;88.59;94754.16;5051281;28;20028;-58
2022/05/24 05:56:28;;;;;;;;;;;18.00;73.80;;;13.87;88.34;94748.00;5066104;28;20433;-58
2022/05/24 05:58:57;;;;;;;10.32;3.58;;;17.90;73.40;;;13.95;88.20;94755.31;5036496;28;19958;-57
2022/05/24 06:01:29;;;;;;;4.28;2.53;;;18.00;73.20;;;14.01;88.14;94759.44;5059891;28;20025;-54
2022/05/24 06:03:59;;;;;;;7.43;3.50;;;18.10;73.10;;;14.06;87.98;94761.19;5070554;28;20016;-54
2022/05/24 06:06:30;;;;;;;4.30;2.75;;;18.20;73.80;;;14.11;87.05;94764.53;5052089;28;20020;-56
2022/05/24 06:09:12;;;;;;;6.70;2.70;;;18.30;72.70;;;14.20;86.89;94771.84;5053830;28;20074;-56
2022/05/24 06:11:42;;;;;;;5.65;2.70;;;18.40;72.70;;;14.28;86.61;94771.09;5053813;28;20372;-56
2022/05/24 06:14:09;;;;;;;7.50;2.55;;;18.50;72.50;;;14.40;87.05;94762.50;5071895;28;20093;-56
2022/05/24 06:16:35;;;;;;;5.00;2.30;;;18.60;72.30;;;14.37;86.14;94753.16;5049001;28;20027;-55
2022/05/24 06:19:06;;;;;;;7.15;2.83;;;18.60;72.10;;;14.47;86.33;94774.31;5071347;28;20099;-57
2022/05/24 06:21:35;;;;;;;5.80;2.60;;;18.60;72.00;;;14.44;86.63;94774.94;5070877;28;20105;-57
2022/05/24 06:24:14;;;;;;;9.80;3.22;;;18.60;72.00;;;14.46;86.78;94774.66;5037017;28;20028;-57
2022/05/24 06:26:40;;;;;;;4.78;2.70;;;18.50;72.00;;;14.44;86.36;94777.63;5055592;28;20136;-58
2022/05/24 06:29:07;;;;;;;4.45;2.70;;;18.50;72.00;;;14.39;86.00;94779.66;5054909;28;20115;-58
2022/05/24 06:31:35;;;;;;;5.78;2.78;;;18.40;72.00;;;14.35;86.10;94776.78;5037709;28;20517;-57
2022/05/24 06:34:04;;;;;;;5.70;2.40;;;18.30;72.00;;;14.28;86.43;94793.31;5054299;28;20028;-57
2022/05/24 06:36:35;;;;;;;7.20;2.83;;;18.30;72.00;;;14.30;86.75;94793.78;5075330;28;20423;-56
2022/05/24 06:39:01;;;;;;;5.95;2.80;;;18.30;72.10;;;14.33;86.70;94782.47;5091026;28;20627;-56
2022/05/24 06:41:26;;;;;;;8.75;2.90;;;18.40;72.00;;;14.35;87.58;94777.59;5079314;28;20090;-54
2022/05/24 06:43:53;;;;;;;6.65;2.97;;;18.50;72.00;;;14.39;87.50;94777.00;5076608;28;20495;-56
2022/05/24 06:46:22;;;;;;;5.68;2.85;;;18.60;72.00;;;14.26;87.45;94869.72;5072651;28;20039;-57
2022/05/24 06:48:48;;;;;;;2.08;1.08;;;18.50;71.90;;;13.67;80.77;94863.59;5091463;28;20390;-54
2022/05/24 06:51:21;;;;;;;2.92;0.70;;;18.40;70.30;;;13.05;80.35;94854.09;5073376;28;20028;-57
2022/05/24 06:53:48;;;;;;;1.10;0.80;;;18.00;68.50;;;12.73;81.82;94868.34;5056789;28;20051;-53
2022/05/24 06:56:15;;;;;;;2.72;0.55;;;17.70;68.40;;;12.42;81.70;94855.50;5093857;28;20031;-57
2022/05/24 06:58:44;;;;;;;2.20;0.70;;;17.30;68.10;;;12.10;82.46;94860.88;5060837;28;20023;-56
2022/05/24 07:04:03;;;;;;;0.95;0.65;;;16.80;68.30;;;11.82;83.41;94880.19;5095626;28;20702;-58
2022/05/24 07:06:40;;;;;;;2.03;0.70;;;16.50;68.60;;;11.64;83.27;94874.84;5077073;28;20097;-54
2022/05/24 07:09:06;;;;;;;5.68;0.60;;;16.30;68.80;;;11.57;84.10;94880.53;5095409;28;20351;-57
2022/05/24 07:11:32;;;;;;;4.20;0.57;;;16.10;69.10;;;11.45;84.15;94866.84;5095218;28;20482;-57
2022/05/24 07:14:01;;;;;;;2.60;0.52;;;16.00;69.40;;;11.38;84.36;94890.41;5060472;28;20479;-56
2022/05/24 07:16:29;;;;;;;0.57;0.50;;;16.00;69.50;;;11.39;85.32;94882.09;5076637;28;20028;-56
2022/05/24 07:18:55;;;;;;;1.83;0.50;;;16.00;69.60;;;11.50;85.49;94888.91;5077353;28;20107;-57
2022/05/24 07:21:21;;;;;;;2.33;0.65;;;16.10;69.80;;;11.41;84.97;94887.16;5095744;28;20115;-55
2022/05/24 07:23:46;;;;;;;4.07;0.57;;;16.10;69.60;;;11.48;85.62;94900.94;5076950;28;20455;-54
2022/05/24 07:26:19;;;;;;;1.27;0.50;;;16.20;69.60;;;11.44;84.70;94892.72;5076799;28;20036;-57
2022/05/24 07:28:45;;;;;;;3.13;0.70;;;16.20;69.20;;;11.45;84.43;94890.84;5077070;28;20032;-57
2022/05/24 07:31:10;;;;;;;1.73;0.60;;;16.20;69.10;;;11.50;84.49;94896.91;5094998;28;20061;-56
2022/05/24 07:33:45;;;;;;;1.30;0.50;;;16.20;69.20;;;11.47;83.44;94900.16;5094897;28;20038;-57
2022/05/24 07:36:11;;;;;;;0.60;0.50;;;16.10;69.10;;;11.48;84.13;94911.59;5078938;28;20024;-57
2022/05/24 07:38:40;;;;;;;2.60;0.80;;;16.10;69.20;;;11.42;83.95;94910.88;5100614;28;20111;-57
2022/05/24 07:46:39;;;;;;;1.27;0.55;;;15.80;69.40;;;11.21;83.38;94920.97;5088278;28;20055;-56
2022/05/24 07:49:05;;;;;;;0.60;0.50;;;15.70;69.40;;;11.25;83.92;94932.66;5094861;28;20028;-56
2022/05/24 07:51:37;;;;;;;1.27;0.40;;;15.70;69.50;;;11.21;82.87;94931.63;5076568;28;20032;-57
2022/05/24 07:54:03;;;;;;;0.70;0.50;;;15.60;69.40;;;11.20;83.86;94930.06;5076426;28;20031;-57
2022/05/24 07:56:35;;;;;;;3.15;0.60;;;15.50;69.50;;;11.20;83.03;94934.59;5075862;28;20273;-56
2022/05/24 07:59:07;;;;;;;1.65;0.73;;;15.60;69.50;;;11.19;83.46;94938.31;5094477;28;20442;-54
2022/05/24 08:01:40;;;;;;;0.77;0.50;;;15.50;69.50;;;11.18;82.82;94934.06;5076148;28;20061;-56
2022/05/24 08:04:09;;;;;;;1.95;0.63;;;15.50;69.50;;;11.17;82.96;94937.81;5094367;28;20114;-56
2022/05/24 08:06:38;;;;;;;2.13;0.60;;;15.60;69.40;;;11.21;82.89;94952.16;5075744;28;20169;-55
2022/05/24 08:09:10;;;;;;;1.40;0.65;;;15.60;69.20;;;11.24;83.34;94939.06;5076221;28;20525;-56
2022/05/24 08:11:39;;;;;;;0.40;0.40;;;15.60;69.50;;;11.23;83.16;94958.81;5094097;28;20479;-57
2022/05/24 08:14:06;;;;;;;1.33;0.60;;;15.70;69.60;;;11.27;83.38;94956.38;5094057;28;20500;-55
2022/05/24 08:16:33;;;;;;;1.50;0.77;;;15.70;69.10;;;11.32;82.85;94951.78;5093771;28;20017;-56
2022/05/24 08:19:14;;;;;;;3.33;0.60;;;15.70;69.10;;;11.33;82.75;94952.56;5075942;28;20024;-57
2022/05/24 08:21:48;;;;;;;4.40;1.00;;;15.70;69.10;;;11.32;82.65;94954.44;5059420;28;20077;-58
2022/05/24 08:24:16;;;;;;;1.45;0.73;;;15.70;69.00;;;11.33;82.57;94960.56;5076365;28;20036;-57
2022/05/24 08:26:45;;;;;;;1.00;0.60;;;15.70;69.00;;;11.36;81.48;94973.34;5093849;28;20033;-57
2022/05/24 08:29:14;;;;;;;3.13;0.82;;;15.70;68.90;;;11.37;82.11;94974.91;5094115;28;20035;-57
2022/05/24 08:31:49;;;;;;;1.55;0.80;;;15.70;68.70;;;11.41;82.24;94975.94;5075807;28;20123;-56
2022/05/24 08:34:20;;;;;;;1.13;0.90;;;15.80;68.70;;;11.42;81.62;94982.06;5094023;28;20024;-57
2022/05/24 08:36:46;;;;;;;3.42;0.80;;;15.80;68.40;;;11.47;82.31;94980.16;5078427;28;20020;-58
2022/05/24 08:39:14;;;;;;;2.30;0.70;;;15.90;68.40;;;11.54;81.25;94983.25;5086150;28;20020;-58
2022/05/24 08:42:26;;;;;;;1.45;0.75;;;16.00;68.40;;;11.67;81.05;95000.44;5093809;28;20058;-57
2022/05/24 08:48:36;;;;;;;3.30;1.20;;;16.00;67.90;;;11.61;79.02;94993.59;5035964;28;20036;-50
2022/05/24 08:51:27;;;;;;;0.90;0.75;;;16.10;67.50;;;11.68;80.09;94988.69;5031998;28;20025;-51
2022/05/24 08:54:05;;;;;;;1.73;0.90;;;16.10;67.40;;;11.73;77.94;94985.19;5053252;28;20036;-48
2022/05/24 08:56:59;;;;;;;2.72;0.80;;;16.20;67.20;;;11.82;79.11;94991.47;4982228;28;20026;-48
2022/05/24 08:59:35;;;;;;;3.38;0.70;;;16.30;66.90;;;11.86;77.69;94991.72;4998947;28;20037;-48
2022/05/24 09:02:01;;;;;;;1.80;0.65;;;16.40;66.70;;;11.99;78.61;94996.34;5013377;28;20372;-54
2022/05/24 09:04:30;;;;;;;2.38;0.80;;;16.40;66.60;;;12.09;77.59;95003.41;5018951;28;20051;-52
2022/05/24 09:07:43;;;;;;;3.35;0.90;;;16.50;66.50;;;12.23;77.76;95004.31;5000022;28;20492;-51
2022/05/24 09:10:23;;;;;;;2.35;0.93;;;16.70;66.40;;;12.34;76.83;94999.59;5036173;28;20045;-49
2022/05/24 09:13:35;;;;;;;1.60;0.90;;;16.80;66.30;;;12.47;77.82;95005.03;5036443;28;20041;-50
2022/05/24 09:16:13;;;;;;;3.40;0.98;;;17.00;66.00;;;12.63;76.97;94999.41;5053409;28;20029;-51
2022/05/24 09:19:19;;;;;;;1.83;0.85;;;17.00;66.10;;;12.78;75.09;95014.44;4981104;28;20124;-50
2022/05/24 09:21:52;;;;;;;1.27;0.98;;;17.20;65.40;;;12.88;76.39;95022.28;5042442;28;20021;-49
2022/05/24 09:24:57;;;;;;;3.22;1.42;;;17.30;65.50;;;12.86;76.39;95027.94;5036120;28;20025;-49
2022/05/24 09:27:28;;;;;;;2.08;1.10;;;17.30;65.20;;;12.94;76.12;95021.94;5011509;28;20025;-54
2022/05/24 09:29:58;;;;;;;3.58;1.00;;;17.40;65.30;;;12.90;74.87;95023.56;5018645;28;20077;-49
2022/05/24 09:32:42;;;;;;;1.75;1.20;;;17.50;64.90;;;12.99;75.82;95028.25;5053143;28;20112;-48
2022/05/24 09:35:19;;;;;;;1.73;1.00;;;17.50;64.60;;;12.94;75.58;95029.94;5053140;28;20093;-49
2022/05/24 09:38:13;;;;;;;1.73;1.05;;;17.50;64.40;;;12.98;73.91;95032.03;5053267;28;20029;-49
2022/05/24 09:41:10;;;;;;;1.73;0.80;;;17.50;64.40;;;13.08;75.39;95029.19;5048904;28;20037;-49
2022/05/24 09:43:39;;;;;;;2.63;0.90;;;17.50;64.20;;;13.13;73.94;95040.59;5053035;28;20100;-49
2022/05/24 09:46:22;;;;;;;2.20;1.00;;;17.50;63.90;;;13.13;73.44;95031.75;5027504;28;20492;-48
2022/05/24 09:49:39;;;;;;;2.13;0.60;;;17.70;63.80;;;13.23;73.21;95036.16;5016074;28;20080;-49
2022/05/24 09:52:17;;;;;;;1.20;1.00;;;17.80;63.20;;;13.36;73.02;95046.13;4922614;29;20091;-49
2022/05/24 09:55:00;;;;;;;2.35;1.00;;;18.00;62.80;;;13.48;73.12;95037.63;4933570;29;20030;-50
2022/05/24 09:57:33;;;;;;;2.70;1.00;;;18.20;62.40;;;13.52;71.26;95041.28;4912200;29;20072;-52
2022/05/24 10:00:23;;;;;;;2.78;0.77;;;18.30;61.80;;;13.68;70.96;95034.53;4933373;29;20480;-49
2022/05/24 10:03:06;;;;;;;1.85;0.80;;;18.50;61.40;;;13.85;71.80;95036.63;4933612;29;20171;-51
2022/05/24 10:05:33;;;;;;;0.98;0.82;;;18.60;61.40;;;14.00;71.11;95043.56;4933331;29;20450;-50
2022/05/24 10:08:12;;;;;;;1.55;0.70;;;18.70;61.40;;;13.90;70.18;95047.22;4933254;29;20042;-50
2022/05/24 10:10:44;;;;;;;2.67;0.77;;;18.70;60.40;;;13.85;69.80;95041.97;4918349;29;20063;-53
2022/05/24 10:13:44;;;;;;;1.88;0.90;;;18.70;59.90;;;13.89;68.78;95038.41;4917844;29;20422;-50
2022/05/24 10:16:51;;;;;;;2.15;1.17;;;18.70;59.80;;;13.87;70.19;95050.50;4917064;29;20039;-49
2022/05/24 10:19:54;;;;;;;1.30;0.63;;;18.60;59.60;;;13.80;69.99;95050.91;4933085;29;20520;-52
2022/05/24 10:22:33;;;;;;;2.47;0.85;;;18.50;59.40;;;13.85;70.15;95058.03;4958434;28;20033;-52
2022/05/24 10:25:17;;;;;;;2.15;0.68;;;18.40;59.60;;;13.83;70.89;95052.19;5032036;28;20072;-49
2022/05/24 10:28:28;;;;;;;1.38;0.65;;;18.40;59.60;;;13.78;70.59;95049.63;5014746;28;20036;-51
2022/05/24 10:31:27;;;;;;;0.50;0.50;;;18.30;59.50;;;13.77;72.55;95059.53;4982854;28;20535;-50
2022/05/24 10:40:34;;;;;;;1.70;0.60;;;18.50;59.70;;;13.91;72.51;95050.69;5032964;28;20040;-51
2022/05/24 10:43:29;;;;;;;2.40;0.63;;;18.60;59.60;;;14.06;70.43;95051.19;5034468;28;20146;-50
2022/05/24 10:46:23;;;;;;;1.45;0.70;;;18.80;59.30;;;14.11;69.11;95042.28;5039676;28;20060;-50
2022/05/24 10:49:39;;;;;;;1.65;0.63;;;18.90;59.00;;;14.25;70.52;95047.59;5000790;28;20092;-50
2022/05/24 10:52:31;;;;;;;1.83;0.70;;;19.10;58.80;;;14.44;69.87;95040.22;5031960;28;20049;-50
2022/05/24 10:55:17;;;;;;;2.28;1.00;;;19.30;58.50;;;14.57;68.99;95044.78;5028266;28;20041;-49
2022/05/24 10:58:11;;;;;;;2.00;0.80;;;19.40;58.30;;;14.74;68.58;95044.13;5032145;28;20305;-49
2022/05/24 11:00:56;;;;;;;;;;;19.70;58.00;;;14.89;68.76;95042.19;4999262;28;20042;-50
2022/05/24 11:03:31;;;;;;;2.25;0.70;;;19.80;58.10;;;14.90;66.96;95041.88;4998653;28;19909;-51
2022/05/24 11:06:27;;;;;;;0.60;0.60;;;20.00;57.10;;;14.99;65.63;95042.72;4998375;28;20026;-51
2022/05/24 11:09:06;;;;;;;1.70;0.60;;;20.20;56.80;;;14.83;64.64;95038.84;5015289;28;20108;-50
2022/05/24 11:12:12;;;;;;;1.48;0.70;;;20.30;55.30;;;15.08;64.30;95044.69;5014870;28;20451;-51
2022/05/24 11:14:49;;;;;;;2.60;1.00;;;20.50;55.00;;;15.13;63.75;95037.28;4998526;28;20047;-49
2022/05/24 11:17:20;;;;;;;2.28;0.80;;;20.70;54.40;;;15.32;66.00;95038.97;5019576;28;20029;-50
2022/05/24 11:19:50;;;;;;;2.65;1.00;;;20.90;54.20;;;15.56;66.98;95041.31;5014660;28;20022;-50
2022/05/24 11:22:46;;;;;;;2.50;1.48;;;21.30;54.10;;;15.66;67.83;95043.72;4998281;28;20042;-54
2022/05/24 11:25:27;;;;;;;2.25;1.40;;;21.60;54.00;;;15.81;68.02;95043.34;5030720;28;20277;-51
2022/05/24 11:28:04;;;;;;;1.60;1.23;;;21.90;53.80;;;16.05;66.43;95037.59;5031010;28;20025;-49